sensor_id;sensor_type;location;lat;lon;timestamp;P1;durP1;ratioP1;P2;durP2;ratioP2
17850;SDS011;9051;51.548;14.348;2023-02-26T00:02:00;2.10;;;1.90;;
17850;SDS011;9051;51.548;14.348;2023-02-26T00:04:32;3.00;;;2.00;;
17850;SDS011;9051;51.548;14.348;2023-02-26T00:07:04;2.30;;;2.07;;
17850;SDS011;9051;51.548;14.348;2023-02-26T00:09:37;3.63;;;2.10;;
17850;SDS011;9051;51.548;14.348;2023-02-26T00:12:10;2.07;;;1.97;;
17850;SDS011;9051;51.548;14.348;2023-02-26T00:14:42;1.80;;;1.70;;
17850;SDS011;9051;51.548;14.348;2023-02-26T00:17:25;1.93;;;1.80;;
17850;SDS011;9051;51.548;14.348;2023-02-26T00:20:02;2.90;;;2.10;;
17850;SDS011;9051;51.548;14.348;2023-02-26T00:22:36;3.03;;;1.93;;
17850;SDS011;9051;51.548;14.348;2023-02-26T00:25:10;2.10;;;1.60;;
17850;SDS011;9051;51.548;14.348;2023-02-26T00:27:42;2.00;;;1.47;;
17850;SDS011;9051;51.548;14.348;2023-02-26T00:30:15;2.13;;;1.90;;
17850;SDS011;9051;51.548;14.348;2023-02-26T00:32:48;2.00;;;1.90;;
17850;SDS011;9051;51.548;14.348;2023-02-26T00:35:20;2.50;;;1.90;;
17850;SDS011;9051;51.548;14.348;2023-02-26T00:37:58;2.30;;;2.10;;
17850;SDS011;9051;51.548;14.348;2023-02-26T00:40:45;3.17;;;2.47;;
17850;SDS011;9051;51.548;14.348;2023-02-26T00:43:19;2.07;;;1.87;;
17850;SDS011;9051;51.548;14.348;2023-02-26T00:46:01;3.10;;;2.43;;
17850;SDS011;9051;51.548;14.348;2023-02-26T00:48:46;1.93;;;1.83;;
17850;SDS011;9051;51.548;14.348;2023-02-26T00:51:26;2.07;;;1.97;;
17850;SDS011;9051;51.548;14.348;2023-02-26T00:54:04;2.40;;;2.20;;
17850;SDS011;9051;51.548;14.348;2023-02-26T00:56:42;3.03;;;2.27;;
17850;SDS011;9051;51.548;14.348;2023-02-26T00:59:14;2.10;;;2.00;;
17850;SDS011;9051;51.548;14.348;2023-02-26T01:01:46;2.60;;;2.40;;
17850;SDS011;9051;51.548;14.348;2023-02-26T01:04:19;4.13;;;2.43;;
17850;SDS011;9051;51.548;14.348;2023-02-26T01:06:55;3.07;;;2.10;;
17850;SDS011;9051;51.548;14.348;2023-02-26T01:09:29;2.87;;;2.37;;
17850;SDS011;9051;51.548;14.348;2023-02-26T01:12:07;3.60;;;2.33;;
17850;SDS011;9051;51.548;14.348;2023-02-26T01:14:42;3.07;;;2.23;;
17850;SDS011;9051;51.548;14.348;2023-02-26T01:17:17;2.97;;;2.57;;
17850;SDS011;9051;51.548;14.348;2023-02-26T01:19:54;4.27;;;2.40;;
17850;SDS011;9051;51.548;14.348;2023-02-26T01:22:34;3.30;;;2.30;;
17850;SDS011;9051;51.548;14.348;2023-02-26T01:25:12;3.23;;;2.50;;
17850;SDS011;9051;51.548;14.348;2023-02-26T01:27:48;2.73;;;2.50;;
17850;SDS011;9051;51.548;14.348;2023-02-26T01:30:20;3.60;;;2.67;;
17850;SDS011;9051;51.548;14.348;2023-02-26T01:32:54;3.00;;;2.47;;
17850;SDS011;9051;51.548;14.348;2023-02-26T01:35:31;3.53;;;2.40;;
17850;SDS011;9051;51.548;14.348;2023-02-26T01:38:16;3.33;;;2.87;;
17850;SDS011;9051;51.548;14.348;2023-02-26T01:41:01;2.67;;;2.33;;
17850;SDS011;9051;51.548;14.348;2023-02-26T01:43:50;3.50;;;2.47;;
17850;SDS011;9051;51.548;14.348;2023-02-26T01:46:31;2.40;;;2.20;;
17850;SDS011;9051;51.548;14.348;2023-02-26T01:49:11;2.30;;;2.10;;
17850;SDS011;9051;51.548;14.348;2023-02-26T01:51:47;4.10;;;2.60;;
17850;SDS011;9051;51.548;14.348;2023-02-26T01:54:21;3.20;;;2.30;;
17850;SDS011;9051;51.548;14.348;2023-02-26T01:56:56;3.63;;;2.47;;
17850;SDS011;9051;51.548;14.348;2023-02-26T01:59:35;6.73;;;2.67;;
17850;SDS011;9051;51.548;14.348;2023-02-26T02:02:09;2.40;;;2.13;;
17850;SDS011;9051;51.548;14.348;2023-02-26T02:04:44;3.10;;;2.40;;
17850;SDS011;9051;51.548;14.348;2023-02-26T02:07:17;2.77;;;1.43;;
17850;SDS011;9051;51.548;14.348;2023-02-26T02:09:50;4.00;;;2.73;;
17850;SDS011;9051;51.548;14.348;2023-02-26T02:12:24;2.20;;;2.00;;
17850;SDS011;9051;51.548;14.348;2023-02-26T02:15:06;2.40;;;2.20;;
17850;SDS011;9051;51.548;14.348;2023-02-26T02:17:44;3.50;;;2.00;;
17850;SDS011;9051;51.548;14.348;2023-02-26T02:20:26;2.57;;;2.37;;
17850;SDS011;9051;51.548;14.348;2023-02-26T02:23:22;3.20;;;2.30;;
17850;SDS011;9051;51.548;14.348;2023-02-26T02:26:10;2.90;;;2.03;;
17850;SDS011;9051;51.548;14.348;2023-02-26T02:32:03;4.00;;;2.40;;
17850;SDS011;9051;51.548;14.348;2023-02-26T02:34:40;2.17;;;1.97;;
17850;SDS011;9051;51.548;14.348;2023-02-26T02:37:17;2.37;;;2.13;;
17850;SDS011;9051;51.548;14.348;2023-02-26T02:39:57;3.47;;;2.27;;
17850;SDS011;9051;51.548;14.348;2023-02-26T02:42:33;4.33;;;2.27;;
17850;SDS011;9051;51.548;14.348;2023-02-26T02:45:10;3.60;;;2.50;;
17850;SDS011;9051;51.548;14.348;2023-02-26T02:47:51;3.17;;;2.13;;
17850;SDS011;9051;51.548;14.348;2023-02-26T02:50:29;2.73;;;2.30;;
17850;SDS011;9051;51.548;14.348;2023-02-26T02:53:06;5.10;;;2.40;;
17850;SDS011;9051;51.548;14.348;2023-02-26T02:55:45;3.40;;;2.30;;
17850;SDS011;9051;51.548;14.348;2023-02-26T02:58:20;3.87;;;2.30;;
17850;SDS011;9051;51.548;14.348;2023-02-26T03:00:56;3.97;;;2.67;;
17850;SDS011;9051;51.548;14.348;2023-02-26T03:03:33;4.57;;;2.40;;
17850;SDS011;9051;51.548;14.348;2023-02-26T03:06:08;2.27;;;2.00;;
17850;SDS011;9051;51.548;14.348;2023-02-26T03:08:40;2.93;;;2.10;;
17850;SDS011;9051;51.548;14.348;2023-02-26T03:11:13;2.40;;;2.20;;
17850;SDS011;9051;51.548;14.348;2023-02-26T03:13:46;2.33;;;2.00;;
17850;SDS011;9051;51.548;14.348;2023-02-26T03:16:28;4.33;;;2.20;;
17850;SDS011;9051;51.548;14.348;2023-02-26T03:19:14;2.23;;;2.00;;
17850;SDS011;9051;51.548;14.348;2023-02-26T03:21:52;2.13;;;1.90;;
17850;SDS011;9051;51.548;14.348;2023-02-26T03:24:50;2.80;;;2.10;;
17850;SDS011;9051;51.548;14.348;2023-02-26T03:27:30;4.40;;;2.10;;
17850;SDS011;9051;51.548;14.348;2023-02-26T03:30:05;3.27;;;2.30;;
17850;SDS011;9051;51.548;14.348;2023-02-26T03:32:49;3.47;;;1.80;;
17850;SDS011;9051;51.548;14.348;2023-02-26T03:35:32;3.13;;;1.63;;
17850;SDS011;9051;51.548;14.348;2023-02-26T03:38:10;2.30;;;1.90;;
17850;SDS011;9051;51.548;14.348;2023-02-26T03:40:46;3.00;;;1.97;;
17850;SDS011;9051;51.548;14.348;2023-02-26T03:43:24;2.63;;;1.70;;
17850;SDS011;9051;51.548;14.348;2023-02-26T03:46:02;1.77;;;1.50;;
17850;SDS011;9051;51.548;14.348;2023-02-26T03:48:37;2.40;;;1.70;;
17850;SDS011;9051;51.548;14.348;2023-02-26T03:51:11;2.00;;;1.80;;
17850;SDS011;9051;51.548;14.348;2023-02-26T03:54:12;3.07;;;2.00;;
17850;SDS011;9051;51.548;14.348;2023-02-26T03:56:55;3.00;;;2.03;;
17850;SDS011;9051;51.548;14.348;2023-02-26T03:59:46;3.23;;;2.00;;
17850;SDS011;9051;51.548;14.348;2023-02-26T04:02:44;2.10;;;1.90;;
17850;SDS011;9051;51.548;14.348;2023-02-26T04:05:22;2.80;;;1.90;;
17850;SDS011;9051;51.548;14.348;2023-02-26T04:07:58;3.37;;;1.90;;
17850;SDS011;9051;51.548;14.348;2023-02-26T04:10:35;2.30;;;1.80;;
17850;SDS011;9051;51.548;14.348;2023-02-26T04:13:11;2.40;;;1.90;;
17850;SDS011;9051;51.548;14.348;2023-02-26T04:15:43;3.30;;;2.13;;
17850;SDS011;9051;51.548;14.348;2023-02-26T04:18:15;2.73;;;1.67;;
17850;SDS011;9051;51.548;14.348;2023-02-26T04:20:48;3.73;;;2.23;;
17850;SDS011;9051;51.548;14.348;2023-02-26T04:23:21;3.77;;;1.93;;
17850;SDS011;9051;51.548;14.348;2023-02-26T04:25:53;2.80;;;1.83;;
17850;SDS011;9051;51.548;14.348;2023-02-26T04:28:25;2.27;;;1.60;;
17850;SDS011;9051;51.548;14.348;2023-02-26T04:31:00;4.23;;;1.67;;
17850;SDS011;9051;51.548;14.348;2023-02-26T04:33:32;2.53;;;1.83;;
17850;SDS011;9051;51.548;14.348;2023-02-26T04:36:04;4.03;;;1.90;;
17850;SDS011;9051;51.548;14.348;2023-02-26T04:38:38;2.93;;;1.90;;
17850;SDS011;9051;51.548;14.348;2023-02-26T04:41:10;6.50;;;2.67;;
17850;SDS011;9051;51.548;14.348;2023-02-26T04:43:42;3.33;;;1.73;;
17850;SDS011;9051;51.548;14.348;2023-02-26T04:46:22;2.13;;;1.90;;
17850;SDS011;9051;51.548;14.348;2023-02-26T04:48:55;2.60;;;1.90;;
17850;SDS011;9051;51.548;14.348;2023-02-26T04:51:27;3.97;;;2.23;;
17850;SDS011;9051;51.548;14.348;2023-02-26T04:54:00;3.60;;;2.13;;
17850;SDS011;9051;51.548;14.348;2023-02-26T04:56:32;2.40;;;1.77;;
17850;SDS011;9051;51.548;14.348;2023-02-26T04:59:06;3.83;;;2.30;;
17850;SDS011;9051;51.548;14.348;2023-02-26T05:01:39;2.57;;;2.00;;
17850;SDS011;9051;51.548;14.348;2023-02-26T05:04:12;2.53;;;1.70;;
17850;SDS011;9051;51.548;14.348;2023-02-26T05:06:46;4.23;;;2.13;;
17850;SDS011;9051;51.548;14.348;2023-02-26T05:09:19;4.37;;;2.57;;
17850;SDS011;9051;51.548;14.348;2023-02-26T05:11:51;3.90;;;2.50;;
17850;SDS011;9051;51.548;14.348;2023-02-26T05:14:23;2.90;;;2.10;;
17850;SDS011;9051;51.548;14.348;2023-02-26T05:16:55;5.07;;;2.20;;
17850;SDS011;9051;51.548;14.348;2023-02-26T05:19:27;4.00;;;2.40;;
17850;SDS011;9051;51.548;14.348;2023-02-26T05:21:59;2.80;;;2.50;;
17850;SDS011;9051;51.548;14.348;2023-02-26T05:24:33;3.30;;;2.50;;
17850;SDS011;9051;51.548;14.348;2023-02-26T05:27:05;3.77;;;2.27;;
17850;SDS011;9051;51.548;14.348;2023-02-26T05:29:39;3.17;;;2.30;;
17850;SDS011;9051;51.548;14.348;2023-02-26T05:32:16;2.87;;;2.30;;
17850;SDS011;9051;51.548;14.348;2023-02-26T05:34:47;3.60;;;2.57;;
17850;SDS011;9051;51.548;14.348;2023-02-26T05:37:19;4.60;;;2.27;;
17850;SDS011;9051;51.548;14.348;2023-02-26T05:39:53;3.93;;;2.30;;
17850;SDS011;9051;51.548;14.348;2023-02-26T05:42:25;4.57;;;2.60;;
17850;SDS011;9051;51.548;14.348;2023-02-26T05:44:57;4.40;;;2.33;;
17850;SDS011;9051;51.548;14.348;2023-02-26T05:47:29;4.73;;;2.27;;
17850;SDS011;9051;51.548;14.348;2023-02-26T05:50:00;3.50;;;2.30;;
17850;SDS011;9051;51.548;14.348;2023-02-26T05:52:33;5.73;;;2.20;;
17850;SDS011;9051;51.548;14.348;2023-02-26T05:55:07;2.97;;;2.03;;
17850;SDS011;9051;51.548;14.348;2023-02-26T05:57:40;7.13;;;2.10;;
17850;SDS011;9051;51.548;14.348;2023-02-26T06:00:12;3.83;;;2.37;;
17850;SDS011;9051;51.548;14.348;2023-02-26T06:02:44;3.03;;;1.87;;
17850;SDS011;9051;51.548;14.348;2023-02-26T06:05:16;1.70;;;1.60;;
17850;SDS011;9051;51.548;14.348;2023-02-26T06:07:48;3.57;;;1.90;;
17850;SDS011;9051;51.548;14.348;2023-02-26T06:10:22;2.20;;;1.63;;
17850;SDS011;9051;51.548;14.348;2023-02-26T06:12:54;3.03;;;1.40;;
17850;SDS011;9051;51.548;14.348;2023-02-26T06:15:26;2.70;;;1.80;;
17850;SDS011;9051;51.548;14.348;2023-02-26T06:17:58;4.83;;;1.83;;
17850;SDS011;9051;51.548;14.348;2023-02-26T06:20:29;1.57;;;1.47;;
17850;SDS011;9051;51.548;14.348;2023-02-26T06:23:01;2.50;;;1.50;;
17850;SDS011;9051;51.548;14.348;2023-02-26T06:25:38;3.67;;;1.47;;
17850;SDS011;9051;51.548;14.348;2023-02-26T06:28:10;1.60;;;1.10;;
17850;SDS011;9051;51.548;14.348;2023-02-26T06:30:41;2.23;;;1.37;;
17850;SDS011;9051;51.548;14.348;2023-02-26T06:33:13;2.07;;;1.37;;
17850;SDS011;9051;51.548;14.348;2023-02-26T06:35:45;4.97;;;1.57;;
17850;SDS011;9051;51.548;14.348;2023-02-26T06:38:17;2.40;;;1.23;;
17850;SDS011;9051;51.548;14.348;2023-02-26T06:40:51;3.07;;;1.30;;
17850;SDS011;9051;51.548;14.348;2023-02-26T06:43:23;1.50;;;1.40;;
17850;SDS011;9051;51.548;14.348;2023-02-26T06:45:56;3.73;;;1.40;;
17850;SDS011;9051;51.548;14.348;2023-02-26T06:48:28;1.60;;;1.03;;
17850;SDS011;9051;51.548;14.348;2023-02-26T06:51:00;1.73;;;1.00;;
17850;SDS011;9051;51.548;14.348;2023-02-26T06:53:32;5.10;;;1.20;;
17850;SDS011;9051;51.548;14.348;2023-02-26T06:56:06;3.03;;;1.20;;
17850;SDS011;9051;51.548;14.348;2023-02-26T06:58:38;2.47;;;1.00;;
17850;SDS011;9051;51.548;14.348;2023-02-26T07:01:10;3.10;;;1.40;;
17850;SDS011;9051;51.548;14.348;2023-02-26T07:03:41;1.00;;;0.90;;
17850;SDS011;9051;51.548;14.348;2023-02-26T07:06:13;1.43;;;1.30;;
17850;SDS011;9051;51.548;14.348;2023-02-26T07:08:46;1.90;;;0.90;;
17850;SDS011;9051;51.548;14.348;2023-02-26T07:11:19;2.90;;;1.30;;
17850;SDS011;9051;51.548;14.348;2023-02-26T07:13:51;1.10;;;1.00;;
17850;SDS011;9051;51.548;14.348;2023-02-26T07:16:24;1.80;;;1.10;;
17850;SDS011;9051;51.548;14.348;2023-02-26T07:18:56;2.13;;;1.00;;
17850;SDS011;9051;51.548;14.348;2023-02-26T07:21:27;3.20;;;1.00;;
17850;SDS011;9051;51.548;14.348;2023-02-26T07:24:00;2.77;;;1.23;;
17850;SDS011;9051;51.548;14.348;2023-02-26T07:26:33;1.93;;;1.10;;
17850;SDS011;9051;51.548;14.348;2023-02-26T07:29:05;2.83;;;1.37;;
17850;SDS011;9051;51.548;14.348;2023-02-26T07:31:37;3.83;;;1.10;;
17850;SDS011;9051;51.548;14.348;2023-02-26T07:34:09;2.63;;;1.10;;
17850;SDS011;9051;51.548;14.348;2023-02-26T07:36:40;1.13;;;1.03;;
17850;SDS011;9051;51.548;14.348;2023-02-26T07:39:12;2.47;;;1.23;;
17850;SDS011;9051;51.548;14.348;2023-02-26T07:41:46;1.20;;;1.00;;
17850;SDS011;9051;51.548;14.348;2023-02-26T07:44:18;0.80;;;0.80;;
17850;SDS011;9051;51.548;14.348;2023-02-26T07:46:50;3.07;;;1.43;;
17850;SDS011;9051;51.548;14.348;2023-02-26T07:49:22;1.10;;;1.00;;
17850;SDS011;9051;51.548;14.348;2023-02-26T07:51:54;2.67;;;1.20;;
17850;SDS011;9051;51.548;14.348;2023-02-26T07:54:26;3.33;;;1.13;;
17850;SDS011;9051;51.548;14.348;2023-02-26T07:56:59;1.57;;;1.00;;
17850;SDS011;9051;51.548;14.348;2023-02-26T07:59:31;2.70;;;1.10;;
17850;SDS011;9051;51.548;14.348;2023-02-26T08:02:06;2.93;;;1.27;;
17850;SDS011;9051;51.548;14.348;2023-02-26T08:04:38;1.97;;;1.10;;
17850;SDS011;9051;51.548;14.348;2023-02-26T08:07:11;4.37;;;1.03;;
17850;SDS011;9051;51.548;14.348;2023-02-26T08:09:43;1.57;;;1.10;;
17850;SDS011;9051;51.548;14.348;2023-02-26T08:12:16;1.87;;;1.17;;
17850;SDS011;9051;51.548;14.348;2023-02-26T08:14:48;3.60;;;1.40;;
17850;SDS011;9051;51.548;14.348;2023-02-26T08:17:20;2.97;;;1.30;;
17850;SDS011;9051;51.548;14.348;2023-02-26T08:19:52;1.97;;;1.07;;
17850;SDS011;9051;51.548;14.348;2023-02-26T08:22:24;1.90;;;1.17;;
17850;SDS011;9051;51.548;14.348;2023-02-26T08:24:56;3.63;;;1.30;;
17850;SDS011;9051;51.548;14.348;2023-02-26T08:27:29;2.40;;;1.07;;
17850;SDS011;9051;51.548;14.348;2023-02-26T08:30:01;2.47;;;1.13;;
17850;SDS011;9051;51.548;14.348;2023-02-26T08:32:33;4.50;;;1.30;;
17850;SDS011;9051;51.548;14.348;2023-02-26T08:35:05;2.17;;;1.07;;
17850;SDS011;9051;51.548;14.348;2023-02-26T08:37:37;2.97;;;1.03;;
17850;SDS011;9051;51.548;14.348;2023-02-26T08:40:10;1.87;;;1.27;;
17850;SDS011;9051;51.548;14.348;2023-02-26T08:42:44;3.50;;;1.27;;
17850;SDS011;9051;51.548;14.348;2023-02-26T08:45:16;3.10;;;1.60;;
17850;SDS011;9051;51.548;14.348;2023-02-26T08:47:48;2.83;;;1.40;;
17850;SDS011;9051;51.548;14.348;2023-02-26T08:50:21;3.10;;;1.80;;
17850;SDS011;9051;51.548;14.348;2023-02-26T08:52:53;3.53;;;1.30;;
17850;SDS011;9051;51.548;14.348;2023-02-26T08:55:25;3.83;;;1.30;;
17850;SDS011;9051;51.548;14.348;2023-02-26T08:57:59;5.53;;;2.93;;
17850;SDS011;9051;51.548;14.348;2023-02-26T09:00:31;2.30;;;1.67;;
17850;SDS011;9051;51.548;14.348;2023-02-26T09:03:03;2.33;;;1.30;;
17850;SDS011;9051;51.548;14.348;2023-02-26T09:05:34;2.63;;;1.43;;
17850;SDS011;9051;51.548;14.348;2023-02-26T09:08:06;2.70;;;1.37;;
17850;SDS011;9051;51.548;14.348;2023-02-26T09:10:40;2.80;;;1.57;;
17850;SDS011;9051;51.548;14.348;2023-02-26T09:13:14;2.80;;;1.43;;
17850;SDS011;9051;51.548;14.348;2023-02-26T09:15:47;3.17;;;1.60;;
17850;SDS011;9051;51.548;14.348;2023-02-26T09:18:22;3.87;;;1.47;;
17850;SDS011;9051;51.548;14.348;2023-02-26T09:20:55;1.43;;;1.23;;
17850;SDS011;9051;51.548;14.348;2023-02-26T09:23:27;2.43;;;1.30;;
17850;SDS011;9051;51.548;14.348;2023-02-26T09:25:59;3.47;;;1.90;;
17850;SDS011;9051;51.548;14.348;2023-02-26T09:28:36;3.60;;;1.37;;
17850;SDS011;9051;51.548;14.348;2023-02-26T09:31:08;3.33;;;1.73;;
17850;SDS011;9051;51.548;14.348;2023-02-26T09:33:39;2.10;;;1.33;;
17850;SDS011;9051;51.548;14.348;2023-02-26T09:36:11;2.03;;;1.47;;
17850;SDS011;9051;51.548;14.348;2023-02-26T09:38:43;3.50;;;1.70;;
17850;SDS011;9051;51.548;14.348;2023-02-26T09:41:18;3.87;;;1.80;;
17850;SDS011;9051;51.548;14.348;2023-02-26T09:44:01;3.60;;;1.30;;
17850;SDS011;9051;51.548;14.348;2023-02-26T09:46:45;5.43;;;1.50;;
17850;SDS011;9051;51.548;14.348;2023-02-26T09:49:31;3.50;;;1.60;;
17850;SDS011;9051;51.548;14.348;2023-02-26T09:52:13;2.27;;;1.33;;
17850;SDS011;9051;51.548;14.348;2023-02-26T09:54:55;4.47;;;1.57;;
17850;SDS011;9051;51.548;14.348;2023-02-26T09:57:31;2.70;;;1.20;;
17850;SDS011;9051;51.548;14.348;2023-02-26T10:00:22;4.10;;;1.73;;
17850;SDS011;9051;51.548;14.348;2023-02-26T10:03:02;2.53;;;1.67;;
17850;SDS011;9051;51.548;14.348;2023-02-26T10:05:51;5.33;;;1.73;;
17850;SDS011;9051;51.548;14.348;2023-02-26T10:08:40;2.70;;;1.40;;
17850;SDS011;9051;51.548;14.348;2023-02-26T10:11:19;2.43;;;1.50;;
17850;SDS011;9051;51.548;14.348;2023-02-26T10:13:58;1.70;;;1.17;;
17850;SDS011;9051;51.548;14.348;2023-02-26T10:16:36;1.57;;;1.03;;
17850;SDS011;9051;51.548;14.348;2023-02-26T10:19:13;1.10;;;0.90;;
17850;SDS011;9051;51.548;14.348;2023-02-26T10:21:50;2.47;;;1.43;;
17850;SDS011;9051;51.548;14.348;2023-02-26T10:24:25;1.83;;;1.17;;
17850;SDS011;9051;51.548;14.348;2023-02-26T10:27:03;1.30;;;1.20;;
17850;SDS011;9051;51.548;14.348;2023-02-26T10:29:36;2.67;;;1.20;;
17850;SDS011;9051;51.548;14.348;2023-02-26T10:32:17;2.83;;;1.27;;
17850;SDS011;9051;51.548;14.348;2023-02-26T10:34:56;2.00;;;1.37;;
17850;SDS011;9051;51.548;14.348;2023-02-26T10:37:33;2.20;;;1.17;;
17850;SDS011;9051;51.548;14.348;2023-02-26T10:40:13;2.00;;;1.27;;
17850;SDS011;9051;51.548;14.348;2023-02-26T10:42:49;2.97;;;1.20;;
17850;SDS011;9051;51.548;14.348;2023-02-26T10:48:27;1.33;;;1.20;;
17850;SDS011;9051;51.548;14.348;2023-02-26T10:51:11;3.50;;;1.60;;
17850;SDS011;9051;51.548;14.348;2023-02-26T10:53:46;5.70;;;1.57;;
17850;SDS011;9051;51.548;14.348;2023-02-26T10:56:23;1.67;;;1.10;;
17850;SDS011;9051;51.548;14.348;2023-02-26T10:58:57;1.80;;;1.50;;
17850;SDS011;9051;51.548;14.348;2023-02-26T11:01:30;3.70;;;1.30;;
17850;SDS011;9051;51.548;14.348;2023-02-26T11:04:04;2.33;;;1.30;;
17850;SDS011;9051;51.548;14.348;2023-02-26T11:06:39;2.47;;;1.50;;
17850;SDS011;9051;51.548;14.348;2023-02-26T11:09:17;3.37;;;1.30;;
17850;SDS011;9051;51.548;14.348;2023-02-26T11:11:53;2.17;;;1.30;;
17850;SDS011;9051;51.548;14.348;2023-02-26T11:14:26;1.93;;;1.40;;
17850;SDS011;9051;51.548;14.348;2023-02-26T11:16:59;3.03;;;1.20;;
17850;SDS011;9051;51.548;14.348;2023-02-26T11:19:35;2.73;;;1.20;;
17850;SDS011;9051;51.548;14.348;2023-02-26T11:22:10;2.67;;;1.13;;
17850;SDS011;9051;51.548;14.348;2023-02-26T11:24:44;4.70;;;1.43;;
17850;SDS011;9051;51.548;14.348;2023-02-26T11:27:19;1.30;;;1.13;;
17850;SDS011;9051;51.548;14.348;2023-02-26T11:29:55;1.90;;;1.00;;
17850;SDS011;9051;51.548;14.348;2023-02-26T11:32:29;3.47;;;1.27;;
17850;SDS011;9051;51.548;14.348;2023-02-26T11:35:06;2.10;;;1.37;;
17850;SDS011;9051;51.548;14.348;2023-02-26T11:37:40;1.73;;;1.17;;
17850;SDS011;9051;51.548;14.348;2023-02-26T11:40:18;3.23;;;1.43;;
17850;SDS011;9051;51.548;14.348;2023-02-26T11:42:55;2.73;;;1.30;;
17850;SDS011;9051;51.548;14.348;2023-02-26T11:45:31;2.27;;;1.13;;
17850;SDS011;9051;51.548;14.348;2023-02-26T11:48:06;1.77;;;1.20;;
17850;SDS011;9051;51.548;14.348;2023-02-26T11:50:45;3.13;;;1.00;;
17850;SDS011;9051;51.548;14.348;2023-02-26T11:53:23;3.77;;;1.03;;
17850;SDS011;9051;51.548;14.348;2023-02-26T11:55:58;3.03;;;1.50;;
17850;SDS011;9051;51.548;14.348;2023-02-26T11:58:34;3.03;;;1.60;;
17850;SDS011;9051;51.548;14.348;2023-02-26T12:01:09;2.47;;;1.40;;
17850;SDS011;9051;51.548;14.348;2023-02-26T12:03:43;2.40;;;1.20;;
17850;SDS011;9051;51.548;14.348;2023-02-26T12:06:19;1.80;;;1.17;;
17850;SDS011;9051;51.548;14.348;2023-02-26T12:08:53;2.70;;;1.37;;
17850;SDS011;9051;51.548;14.348;2023-02-26T12:11:34;2.33;;;1.37;;
17850;SDS011;9051;51.548;14.348;2023-02-26T12:14:22;1.60;;;1.50;;
17850;SDS011;9051;51.548;14.348;2023-02-26T12:17:17;1.23;;;0.93;;
17850;SDS011;9051;51.548;14.348;2023-02-26T12:20:08;3.73;;;1.07;;
17850;SDS011;9051;51.548;14.348;2023-02-26T12:22:54;3.37;;;1.33;;
17850;SDS011;9051;51.548;14.348;2023-02-26T12:25:38;2.50;;;1.30;;
17850;SDS011;9051;51.548;14.348;2023-02-26T12:28:36;2.07;;;1.50;;
17850;SDS011;9051;51.548;14.348;2023-02-26T12:34:20;2.73;;;1.10;;
17850;SDS011;9051;51.548;14.348;2023-02-26T12:37:16;5.03;;;1.50;;
17850;SDS011;9051;51.548;14.348;2023-02-26T12:40:04;3.07;;;1.30;;
17850;SDS011;9051;51.548;14.348;2023-02-26T12:42:51;2.10;;;1.10;;
17850;SDS011;9051;51.548;14.348;2023-02-26T12:45:35;1.33;;;0.97;;
17850;SDS011;9051;51.548;14.348;2023-02-26T12:48:34;2.00;;;1.10;;
17850;SDS011;9051;51.548;14.348;2023-02-26T12:51:31;2.20;;;1.30;;
17850;SDS011;9051;51.548;14.348;2023-02-26T12:54:16;2.13;;;1.17;;
17850;SDS011;9051;51.548;14.348;2023-02-26T13:00:18;2.80;;;1.10;;
17850;SDS011;9051;51.548;14.348;2023-02-26T13:09:23;1.97;;;0.97;;
17850;SDS011;9051;51.548;14.348;2023-02-26T13:12:12;2.40;;;1.43;;
17850;SDS011;9051;51.548;14.348;2023-02-26T13:14:56;3.27;;;1.70;;
17850;SDS011;9051;51.548;14.348;2023-02-26T13:17:38;4.43;;;1.80;;
17850;SDS011;9051;51.548;14.348;2023-02-26T13:20:18;3.97;;;1.50;;
17850;SDS011;9051;51.548;14.348;2023-02-26T13:22:54;1.90;;;1.27;;
17850;SDS011;9051;51.548;14.348;2023-02-26T13:25:32;3.07;;;1.83;;
17850;SDS011;9051;51.548;14.348;2023-02-26T13:28:10;1.93;;;1.50;;
17850;SDS011;9051;51.548;14.348;2023-02-26T13:30:52;3.40;;;1.70;;
17850;SDS011;9051;51.548;14.348;2023-02-26T13:33:27;3.63;;;1.70;;
17850;SDS011;9051;51.548;14.348;2023-02-26T13:36:02;2.37;;;1.37;;
17850;SDS011;9051;51.548;14.348;2023-02-26T13:38:40;1.77;;;1.43;;
17850;SDS011;9051;51.548;14.348;2023-02-26T13:41:21;2.70;;;1.43;;
17850;SDS011;9051;51.548;14.348;2023-02-26T13:44:12;6.17;;;1.80;;
17850;SDS011;9051;51.548;14.348;2023-02-26T13:47:06;2.40;;;1.50;;
17850;SDS011;9051;51.548;14.348;2023-02-26T13:50:04;2.13;;;1.40;;
17850;SDS011;9051;51.548;14.348;2023-02-26T13:52:50;1.90;;;1.30;;
17850;SDS011;9051;51.548;14.348;2023-02-26T13:58:15;3.47;;;2.00;;
17850;SDS011;9051;51.548;14.348;2023-02-26T14:01:09;2.70;;;1.70;;
17850;SDS011;9051;51.548;14.348;2023-02-26T14:03:47;2.03;;;1.60;;
17850;SDS011;9051;51.548;14.348;2023-02-26T14:06:35;4.50;;;2.07;;
17850;SDS011;9051;51.548;14.348;2023-02-26T14:12:22;2.50;;;1.17;;
17850;SDS011;9051;51.548;14.348;2023-02-26T14:15:17;1.90;;;0.90;;
17850;SDS011;9051;51.548;14.348;2023-02-26T14:18:18;1.07;;;0.90;;
17850;SDS011;9051;51.548;14.348;2023-02-26T14:24:03;1.40;;;1.00;;
17850;SDS011;9051;51.548;14.348;2023-02-26T14:26:44;1.90;;;1.50;;
17850;SDS011;9051;51.548;14.348;2023-02-26T14:29:21;1.60;;;1.27;;
17850;SDS011;9051;51.548;14.348;2023-02-26T14:32:13;2.23;;;1.70;;
17850;SDS011;9051;51.548;14.348;2023-02-26T14:34:48;2.27;;;1.63;;
17850;SDS011;9051;51.548;14.348;2023-02-26T14:37:23;2.63;;;1.53;;
17850;SDS011;9051;51.548;14.348;2023-02-26T14:39:59;2.47;;;1.57;;
17850;SDS011;9051;51.548;14.348;2023-02-26T14:42:40;1.90;;;1.60;;
17850;SDS011;9051;51.548;14.348;2023-02-26T14:45:22;2.77;;;1.67;;
17850;SDS011;9051;51.548;14.348;2023-02-26T14:47:59;4.27;;;2.80;;
17850;SDS011;9051;51.548;14.348;2023-02-26T14:50:36;1.77;;;1.33;;
17850;SDS011;9051;51.548;14.348;2023-02-26T14:56:34;2.33;;;2.03;;
17850;SDS011;9051;51.548;14.348;2023-02-26T14:59:22;3.70;;;1.70;;
17850;SDS011;9051;51.548;14.348;2023-02-26T15:02:17;2.90;;;2.00;;
17850;SDS011;9051;51.548;14.348;2023-02-26T15:05:10;2.07;;;1.70;;
17850;SDS011;9051;51.548;14.348;2023-02-26T15:07:55;2.13;;;1.13;;
17850;SDS011;9051;51.548;14.348;2023-02-26T15:10:48;5.00;;;1.20;;
17850;SDS011;9051;51.548;14.348;2023-02-26T15:16:33;1.97;;;1.07;;
17850;SDS011;9051;51.548;14.348;2023-02-26T15:19:25;2.33;;;1.30;;
17850;SDS011;9051;51.548;14.348;2023-02-26T15:22:17;1.87;;;0.90;;
17850;SDS011;9051;51.548;14.348;2023-02-26T15:25:03;2.90;;;0.87;;
17850;SDS011;9051;51.548;14.348;2023-02-26T15:27:41;1.20;;;1.10;;
17850;SDS011;9051;51.548;14.348;2023-02-26T15:30:15;0.80;;;0.80;;
17850;SDS011;9051;51.548;14.348;2023-02-26T15:32:48;1.93;;;1.27;;
17850;SDS011;9051;51.548;14.348;2023-02-26T15:35:26;1.43;;;1.00;;
17850;SDS011;9051;51.548;14.348;2023-02-26T15:38:00;1.70;;;1.00;;
17850;SDS011;9051;51.548;14.348;2023-02-26T15:40:33;1.90;;;1.20;;
17850;SDS011;9051;51.548;14.348;2023-02-26T15:43:07;2.67;;;1.30;;
17850;SDS011;9051;51.548;14.348;2023-02-26T15:45:42;2.93;;;1.17;;
17850;SDS011;9051;51.548;14.348;2023-02-26T15:48:23;2.97;;;1.50;;
17850;SDS011;9051;51.548;14.348;2023-02-26T15:51:00;3.47;;;1.60;;
17850;SDS011;9051;51.548;14.348;2023-02-26T15:53:34;2.20;;;1.40;;
17850;SDS011;9051;51.548;14.348;2023-02-26T15:56:10;2.87;;;1.63;;
17850;SDS011;9051;51.548;14.348;2023-02-26T15:58:49;2.90;;;1.70;;
17850;SDS011;9051;51.548;14.348;2023-02-26T16:01:25;2.03;;;1.43;;
17850;SDS011;9051;51.548;14.348;2023-02-26T16:03:59;2.67;;;1.50;;
17850;SDS011;9051;51.548;14.348;2023-02-26T16:06:35;2.50;;;1.70;;
17850;SDS011;9051;51.548;14.348;2023-02-26T16:09:15;3.00;;;1.70;;
17850;SDS011;9051;51.548;14.348;2023-02-26T16:11:50;1.87;;;1.60;;
17850;SDS011;9051;51.548;14.348;2023-02-26T16:14:25;4.30;;;2.10;;
17850;SDS011;9051;51.548;14.348;2023-02-26T16:17:03;2.77;;;1.40;;
17850;SDS011;9051;51.548;14.348;2023-02-26T16:19:37;2.70;;;1.53;;
17850;SDS011;9051;51.548;14.348;2023-02-26T16:22:14;2.27;;;1.53;;